Time;durP1;ratioP1;P1;durP2;ratioP2;P2;SDS_P1;SDS_P2;PMS_P1;PMS_P2;Temp;Humidity;BMP_temperature;BMP_pressure;BME280_temperature;BME280_humidity;BME280_pressure;Samples;Min_cycle;Max_cycle;Signal;HPM_P1;HPM_P2
2022/12/06 00:00:48;;;;;;;12.50;4.80;;;5.60;99.90;;;;;;5029112;28;20060;-39
2022/12/06 00:03:15;;;;;;;11.10;4.15;;;5.60;99.90;;;;;;5024841;28;20052;-39
2022/12/06 00:05:42;;;;;;;14.85;5.10;;;5.60;99.90;;;;;;5029471;28;20045;-39
2022/12/06 00:08:08;;;;;;;15.70;4.85;;;5.50;99.90;;;;;;5024734;28;20053;-39
2022/12/06 00:10:36;;;;;;;16.92;5.60;;;5.60;99.90;;;;;;5028420;28;20085;-39
2022/12/06 00:13:03;;;;;;;20.70;6.20;;;5.50;99.90;;;;;;5029945;28;20060;-39
2022/12/06 00:15:30;;;;;;;19.80;6.32;;;5.50;99.90;;;;;;5017808;28;20057;-38
2022/12/06 00:17:58;;;;;;;13.95;5.82;;;5.50;99.90;;;;;;5034710;28;20108;-38
2022/12/06 00:20:25;;;;;;;16.60;5.55;;;5.60;99.90;;;;;;5006819;28;20516;-39
2022/12/06 00:22:52;;;;;;;13.35;5.68;;;5.50;99.90;;;;;;5028748;28;20453;-38
2022/12/06 00:25:19;;;;;;;13.43;5.38;;;5.60;99.90;;;;;;5035153;28;20072;-38
2022/12/06 00:27:46;;;;;;;18.08;6.30;;;5.60;99.90;;;;;;5034032;28;20056;-39
2022/12/06 00:30:13;;;;;;;15.18;5.78;;;5.50;99.90;;;;;;5016373;28;20064;-38
2022/12/06 00:32:40;;;;;;;9.50;5.40;;;5.60;99.90;;;;;;5017744;28;20045;-39
2022/12/06 00:35:08;;;;;;;14.80;6.05;;;5.60;99.90;;;;;;5035108;28;20053;-38
2022/12/06 00:37:36;;;;;;;19.75;6.43;;;5.50;99.90;;;;;;5035835;28;20393;-38
2022/12/06 00:40:03;;;;;;;13.75;5.82;;;5.50;99.90;;;;;;5031469;28;20108;-40
2022/12/06 00:42:30;;;;;;;16.67;5.57;;;5.60;99.90;;;;;;5030329;28;20056;-39
2022/12/06 00:44:56;;;;;;;11.80;4.95;;;5.50;99.90;;;;;;5017882;28;20054;-39
2022/12/06 00:47:23;;;;;;;17.35;6.18;;;5.50;99.90;;;;;;5035578;28;20072;-39
2022/12/06 00:49:50;;;;;;;22.10;6.45;;;5.50;99.90;;;;;;5033358;28;20049;-39
2022/12/06 00:52:18;;;;;;;15.65;5.78;;;5.60;99.90;;;;;;5034368;28;20050;-40
2022/12/06 00:54:45;;;;;;;11.35;4.88;;;5.50;99.90;;;;;;5033496;28;20057;-39
2022/12/06 00:57:12;;;;;;;12.13;5.07;;;5.50;99.90;;;;;;5016677;28;20504;-40
2022/12/06 00:59:39;;;;;;;13.13;5.07;;;5.50;99.90;;;;;;5033919;28;20440;-39
2022/12/06 01:02:06;;;;;;;12.70;4.68;;;5.60;99.90;;;;;;5034258;28;20053;-39
2022/12/06 01:04:33;;;;;;;17.88;4.70;;;5.50;99.90;;;;;;5001287;28;20061;-39
2022/12/06 01:07:00;;;;;;;15.80;5.60;;;5.50;99.90;;;;;;5026385;28;20045;-39
2022/12/06 01:09:29;;;;;;;11.07;4.72;;;5.50;99.90;;;;;;5033442;28;20141;-38
2022/12/06 01:11:57;;;;;;;13.35;5.47;;;5.50;99.90;;;;;;5034508;28;20050;-39
2022/12/06 01:14:24;;;;;;;11.90;4.72;;;5.60;99.90;;;;;;5031349;28;20352;-39
2022/12/06 01:16:50;;;;;;;16.70;5.50;;;5.60;99.90;;;;;;5033252;28;20448;-38
2022/12/06 01:19:17;;;;;;;15.85;4.95;;;5.50;99.90;;;;;;5015585;28;20093;-37
2022/12/06 01:21:44;;;;;;;15.18;4.22;;;5.60;99.90;;;;;;5031872;28;20099;-39
2022/12/06 01:24:11;;;;;;;10.23;3.72;;;5.50;99.90;;;;;;5031798;28;20131;-39
2022/12/06 01:26:39;;;;;;;10.65;3.50;;;5.60;99.90;;;;;;5031793;28;20107;-39
2022/12/06 01:29:06;;;;;;;11.73;4.32;;;5.50;99.90;;;;;;5020767;28;20112;-39
2022/12/06 01:31:32;;;;;;;13.23;4.10;;;5.60;99.90;;;;;;5016692;28;20053;-39
2022/12/06 01:33:59;;;;;;;14.48;4.70;;;5.60;99.90;;;;;;5034641;28;20400;-40
2022/12/06 01:36:26;;;;;;;14.98;4.53;;;5.60;99.90;;;;;;5034082;28;20045;-39
2022/12/06 01:38:54;;;;;;;11.00;4.00;;;5.50;99.90;;;;;;5034376;28;20060;-39
2022/12/06 01:41:21;;;;;;;14.05;4.47;;;5.60;99.90;;;;;;5033797;28;20473;-39
2022/12/06 01:43:49;;;;;;;14.32;4.57;;;5.60;99.90;;;;;;5018674;28;20136;-40
2022/12/06 01:46:20;;;;;;;13.50;4.63;;;5.60;99.90;;;;;;5015542;28;20085;-39
2022/12/06 01:48:48;;;;;;;14.95;4.65;;;5.60;99.90;;;;;;4998030;28;20046;-40
2022/12/06 01:51:15;;;;;;;14.00;4.32;;;5.50;99.90;;;;;;5015133;28;20049;-41
2022/12/06 01:53:41;;;;;;;14.00;3.55;;;5.50;99.90;;;;;;5019704;28;20124;-41
2022/12/06 01:56:08;;;;;;;11.18;3.45;;;5.50;99.90;;;;;;5030324;28;20139;-41
2022/12/06 01:58:36;;;;;;;9.55;3.40;;;5.50;99.90;;;;;;5012595;28;20077;-43
2022/12/06 02:01:04;;;;;;;8.07;3.45;;;5.40;99.90;;;;;;5030892;28;20136;-42
2022/12/06 02:03:33;;;;;;;8.75;3.30;;;5.40;99.90;;;;;;5016216;28;20053;-41
2022/12/06 02:06:00;;;;;;;6.50;3.22;;;5.40;99.90;;;;;;5031312;28;20064;-40
2022/12/06 02:08:27;;;;;;;5.53;2.80;;;5.40;99.90;;;;;;5030276;28;20064;-41
2022/12/06 02:10:53;;;;;;;10.02;2.70;;;5.30;99.90;;;;;;5036646;28;20552;-40
2022/12/06 02:13:20;;;;;;;6.60;2.85;;;5.30;99.90;;;;;;5034032;28;20107;-40
2022/12/06 02:15:53;;;;;;;7.72;3.05;;;5.30;99.90;;;;;;5014738;28;20065;-39
2022/12/06 02:18:26;;;;;;;9.75;3.22;;;5.30;99.90;;;;;;5015166;28;20052;-40
2022/12/06 02:20:56;;;;;;;5.00;2.40;;;5.30;99.90;;;;;;5031617;28;20081;-40
2022/12/06 02:23:44;;;;;;;7.32;3.03;;;5.30;99.90;;;;;;5033978;28;20107;-39
2022/12/06 02:26:16;;;;;;;8.57;2.92;;;5.20;99.90;;;;;;5029993;28;20076;-40
2022/12/06 02:29:00;;;;;;;6.38;2.75;;;5.20;99.90;;;;;;5023678;28;20141;-41
2022/12/06 02:31:29;;;;;;;7.30;2.88;;;5.20;99.90;;;;;;5027226;28;20123;-41
2022/12/06 02:33:59;;;;;;;8.15;3.00;;;5.20;99.90;;;;;;5015321;28;20065;-40
2022/12/06 02:36:28;;;;;;;14.43;3.30;;;5.30;99.90;;;;;;5032095;28;20087;-41
2022/12/06 02:38:56;;;;;;;12.73;4.18;;;5.20;99.90;;;;;;5031864;28;20140;-40
2022/12/06 02:41:25;;;;;;;5.60;3.38;;;5.20;99.90;;;;;;5029683;28;20084;-40
2022/12/06 02:43:54;;;;;;;16.38;3.83;;;5.20;99.90;;;;;;5032672;28;20046;-40
2022/12/06 02:46:21;;;;;;;10.98;3.95;;;5.20;99.90;;;;;;5031717;28;20138;-41
2022/12/06 02:48:49;;;;;;;12.15;4.20;;;5.20;99.90;;;;;;5031464;28;20049;-40
2022/12/06 02:51:16;;;;;;;8.85;4.00;;;5.20;99.90;;;;;;5031769;28;20084;-40
2022/12/06 02:53:44;;;;;;;10.30;4.40;;;5.30;99.90;;;;;;5045555;28;20472;-40
2022/12/06 02:56:11;;;;;;;13.45;4.05;;;5.20;99.90;;;;;;5011323;28;20128;-40
2022/12/06 02:58:38;;;;;;;11.85;4.05;;;5.20;99.90;;;;;;5013839;28;20130;-40
2022/12/06 03:01:06;;;;;;;7.75;4.32;;;5.20;99.90;;;;;;5030993;28;20464;-39
2022/12/06 03:04:01;;;;;;;7.65;3.90;;;5.20;99.90;;;;;;5030764;28;20131;-40
2022/12/06 03:07:07;;;;;;;9.05;3.50;;;5.20;99.90;;;;;;5031508;28;20053;-39
2022/12/06 03:09:41;;;;;;;10.10;4.43;;;5.30;99.90;;;;;;4931572;29;20111;-39
2022/12/06 03:12:11;;;;;;;9.35;3.83;;;5.20;99.90;;;;;;4916490;29;20064;-40
2022/12/06 03:14:43;;;;;;;9.05;4.63;;;5.20;99.90;;;;;;4964583;28;20128;-40
2022/12/06 03:17:13;;;;;;;7.45;4.30;;;5.20;99.90;;;;;;5012339;28;20051;-40
2022/12/06 03:19:40;;;;;;;11.90;4.20;;;5.20;99.90;;;;;;5012500;28;20517;-40
2022/12/06 03:22:09;;;;;;;15.38;4.15;;;5.30;99.90;;;;;;5011986;28;20128;-38
2022/12/06 03:24:37;;;;;;;10.02;3.72;;;5.20;99.90;;;;;;5006166;28;20132;-40
2022/12/06 03:27:05;;;;;;;10.55;4.18;;;5.20;99.90;;;;;;5005755;28;20125;-40
2022/12/06 03:29:32;;;;;;;9.45;3.47;;;5.20;99.90;;;;;;4977530;28;20073;-40
2022/12/06 03:31:59;;;;;;;12.05;3.67;;;5.20;99.90;;;;;;5010072;28;20081;-40
2022/12/06 03:34:27;;;;;;;9.00;3.42;;;5.20;99.90;;;;;;4982714;28;20050;-40
2022/12/06 03:36:54;;;;;;;9.13;3.83;;;5.20;99.90;;;;;;4991284;28;20050;-40
2022/12/06 03:39:25;;;;;;;10.82;4.25;;;5.20;99.90;;;;;;5011924;28;20076;-40
2022/12/06 03:41:53;;;;;;;14.07;4.13;;;5.20;99.90;;;;;;5010801;28;20080;-40
2022/12/06 03:44:21;;;;;;;9.63;3.85;;;5.20;99.90;;;;;;5003321;28;20081;-40
2022/12/06 03:46:49;;;;;;;9.35;3.50;;;5.10;99.90;;;;;;5011485;28;20066;-38
2022/12/06 03:49:17;;;;;;;6.80;3.55;;;5.10;99.90;;;;;;5011590;28;20062;-40
2022/12/06 03:51:44;;;;;;;9.27;3.95;;;5.10;99.90;;;;;;5012041;28;20049;-36
2022/12/06 03:54:10;;;;;;;9.68;3.45;;;5.00;99.90;;;;;;5002022;28;20100;-40
2022/12/06 03:56:39;;;;;;;10.07;3.85;;;5.10;99.90;;;;;;5011929;28;20092;-40
2022/12/06 03:59:05;;;;;;;11.63;3.88;;;5.10;99.90;;;;;;5012967;28;20131;-41
2022/12/06 04:01:32;;;;;;;8.82;3.13;;;5.10;99.90;;;;;;4999964;28;20133;-36
2022/12/06 04:03:59;;;;;;;6.30;3.40;;;5.00;99.90;;;;;;4973371;28;20127;-40
2022/12/06 04:06:26;;;;;;;6.25;3.35;;;5.00;99.90;;;;;;4975473;28;20454;-40
2022/12/06 04:08:53;;;;;;;10.18;3.28;;;5.00;99.90;;;;;;5003463;28;20133;-39
2022/12/06 04:11:19;;;;;;;6.60;2.85;;;5.00;99.90;;;;;;5001098;28;20129;-40
2022/12/06 04:13:47;;;;;;;11.38;3.25;;;5.10;99.90;;;;;;5026943;28;20107;-40
2022/12/06 04:18:58;;;;;;;5.95;2.72;;;5.00;99.90;;;;;;5030238;28;20680;-40
2022/12/06 04:24:09;;;;;;;5.20;2.53;;;5.00;99.90;;;;;;5014109;28;20053;-40
2022/12/06 04:26:36;;;;;;;8.23;2.50;;;4.90;99.90;;;;;;5029747;28;20138;-40
2022/12/06 04:40:01;;;;;;;8.52;3.33;;;4.90;99.90;;;;;;5012639;28;20054;-40
2022/12/06 04:45:12;;;;;;;3.97;2.30;;;4.80;99.90;;;;;;4999042;28;20127;-40
2022/12/06 04:47:39;;;;;;;6.95;2.75;;;4.80;99.90;;;;;;5028296;28;20049;-39
2022/12/06 04:50:07;;;;;;;5.60;2.63;;;4.80;99.90;;;;;;5019749;28;20485;-39
2022/12/06 04:52:34;;;;;;;8.10;3.15;;;4.80;99.90;;;;;;5026288;28;20138;-39
2022/12/06 04:55:01;;;;;;;7.25;3.50;;;4.70;99.90;;;;;;4995822;28;20454;-39
2022/12/06 04:57:27;;;;;;;5.53;2.75;;;4.70;99.90;;;;;;5028163;28;20123;-40
2022/12/06 04:59:54;;;;;;;6.55;2.83;;;4.70;99.90;;;;;;5032708;28;20085;-40
2022/12/06 05:02:22;;;;;;;4.72;2.75;;;4.60;99.90;;;;;;4999066;28;20555;-39
2022/12/06 05:04:49;;;;;;;5.85;2.67;;;4.60;99.90;;;;;;5013966;28;20058;-40
2022/12/06 05:07:16;;;;;;;5.30;2.58;;;4.60;99.90;;;;;;5032743;28;20045;-39
2022/12/06 05:09:43;;;;;;;5.78;2.65;;;4.60;99.90;;;;;;5012868;28;20140;-38
2022/12/06 05:12:09;;;;;;;7.80;2.90;;;4.50;99.90;;;;;;5031697;28;20097;-40
2022/12/06 05:14:36;;;;;;;7.97;2.53;;;4.60;99.90;;;;;;5017822;28;20507;-38
2022/12/06 05:17:03;;;;;;;8.65;3.35;;;4.50;99.90;;;;;;5016958;28;20103;-40
2022/12/06 05:19:31;;;;;;;8.00;3.10;;;4.50;99.90;;;;;;5003907;28;20129;-38
2022/12/06 05:21:58;;;;;;;8.85;3.30;;;4.50;99.90;;;;;;5007201;28;20134;-40
2022/12/06 05:24:25;;;;;;;6.75;2.80;;;4.50;99.90;;;;;;5034215;28;20130;-39
2022/12/06 05:26:51;;;;;;;4.55;2.70;;;4.40;99.90;;;;;;5031615;28;20125;-39
2022/12/06 05:29:18;;;;;;;8.10;3.00;;;4.40;99.90;;;;;;5032543;28;20091;-40
2022/12/06 05:31:45;;;;;;;7.28;2.75;;;4.50;99.90;;;;;;5033523;28;20053;-40
2022/12/06 05:34:12;;;;;;;9.77;3.20;;;4.40;99.90;;;;;;5028690;28;20103;-40
2022/12/06 05:36:40;;;;;;;6.90;2.97;;;4.40;99.90;;;;;;5030557;28;20076;-39
2022/12/06 05:39:07;;;;;;;6.18;3.00;;;4.40;99.90;;;;;;5016377;28;20088;-39
2022/12/06 05:41:33;;;;;;;7.60;3.08;;;4.40;99.90;;;;;;5015711;28;20080;-39
2022/12/06 05:44:00;;;;;;;4.70;2.30;;;4.40;99.90;;;;;;5018433;28;20054;-40
2022/12/06 05:46:27;;;;;;;17.48;4.45;;;4.40;99.90;;;;;;5009848;28;20053;-40
2022/12/06 05:48:54;;;;;;;8.75;3.67;;;4.40;99.90;;;;;;5031374;28;20072;-40
2022/12/06 05:51:20;;;;;;;8.45;3.58;;;4.30;99.90;;;;;;5034040;28;20449;-40
2022/12/06 05:53:49;;;;;;;7.18;3.70;;;4.30;99.90;;;;;;5015330;28;20458;-40
2022/12/06 05:56:15;;;;;;;8.20;3.35;;;4.30;99.90;;;;;;5030390;28;20107;-40
2022/12/06 05:58:42;;;;;;;5.38;3.20;;;4.30;99.90;;;;;;5016121;28;20080;-39
2022/12/06 06:01:09;;;;;;;4.90;3.33;;;4.30;99.90;;;;;;5031706;28;20045;-40
2022/12/06 06:03:36;;;;;;;8.73;3.47;;;4.30;99.90;;;;;;5029161;28;20049;-40
2022/12/06 06:06:03;;;;;;;8.32;3.13;;;4.30;99.90;;;;;;5017117;28;20077;-39
2022/12/06 06:08:30;;;;;;;7.72;3.33;;;4.30;99.90;;;;;;5033428;28;20138;-39
2022/12/06 06:10:58;;;;;;;5.25;3.20;;;4.20;99.90;;;;;;5039676;28;20053;-39
2022/12/06 06:13:25;;;;;;;8.40;3.40;;;4.20;99.90;;;;;;5027846;28;20164;-38
2022/12/06 06:15:51;;;;;;;6.88;3.10;;;4.20;99.90;;;;;;5015353;28;20093;-39
2022/12/06 06:18:18;;;;;;;9.40;3.97;;;4.30;99.90;;;;;;5010879;28;20057;-38
2022/12/06 06:20:49;;;;;;;7.10;2.90;;;4.30;99.90;;;;;;5011890;28;20092;-40
2022/12/06 06:23:16;;;;;;;9.90;3.33;;;4.20;99.90;;;;;;5033247;28;20390;-39
2022/12/06 06:25:43;;;;;;;6.35;3.10;;;4.20;99.90;;;;;;5033009;28;20088;-39
2022/12/06 06:28:11;;;;;;;6.75;2.95;;;4.20;99.90;;;;;;5032066;28;20473;-40
2022/12/06 06:30:37;;;;;;;10.68;3.35;;;4.20;99.90;;;;;;5016035;28;20436;-38
2022/12/06 06:33:04;;;;;;;9.52;3.17;;;4.20;99.90;;;;;;5032891;28;20045;-39
2022/12/06 06:35:31;;;;;;;7.95;3.97;;;4.20;99.90;;;;;;5015994;28;20054;-39
2022/12/06 06:37:58;;;;;;;6.95;3.63;;;4.10;99.90;;;;;;5030336;28;20133;-39
2022/12/06 06:40:25;;;;;;;9.82;4.18;;;4.10;99.90;;;;;;5009891;28;20049;-40
2022/12/06 06:42:51;;;;;;;4.72;2.80;;;4.10;99.90;;;;;;5035154;28;20144;-38
2022/12/06 06:45:20;;;;;;;5.13;2.60;;;4.00;99.90;;;;;;5035379;28;20493;-39
2022/12/06 06:47:46;;;;;;;6.15;3.08;;;4.10;99.90;;;;;;5028541;28;20063;-38
2022/12/06 06:50:13;;;;;;;7.32;2.70;;;4.00;99.90;;;;;;5028767;28;20103;-38
2022/12/06 06:52:40;;;;;;;6.50;3.10;;;4.00;99.90;;;;;;5019981;28;20099;-39
2022/12/06 06:55:08;;;;;;;8.23;3.90;;;3.90;99.90;;;;;;5031717;28;20493;-37
2022/12/06 06:57:35;;;;;;;6.05;3.58;;;3.90;99.90;;;;;;4995473;28;20042;-38
2022/12/06 07:00:02;;;;;;;6.97;3.65;;;3.80;99.90;;;;;;5024434;28;20258;-38
2022/12/06 07:02:30;;;;;;;5.35;3.40;;;3.80;99.90;;;;;;5027785;28;20411;-36
2022/12/06 07:04:57;;;;;;;11.18;3.70;;;3.70;99.90;;;;;;5008697;28;20112;-38
2022/12/06 07:07:23;;;;;;;5.65;2.90;;;3.70;99.90;;;;;;5014265;28;20666;-38
2022/12/06 07:09:50;;;;;;;6.32;3.15;;;3.60;99.90;;;;;;5011743;28;20053;-39
2022/12/06 07:12:17;;;;;;;7.03;3.33;;;3.60;99.90;;;;;;5020608;28;20046;-39
2022/12/06 07:14:44;;;;;;;5.90;2.97;;;3.60;99.90;;;;;;5029181;28;20492;-38
2022/12/06 07:17:10;;;;;;;4.93;2.88;;;3.60;99.90;;;;;;5026964;28;20104;-37
2022/12/06 07:19:38;;;;;;;5.15;3.08;;;3.50;99.90;;;;;;5010670;28;20540;-38
2022/12/06 07:22:05;;;;;;;4.57;3.08;;;3.50;99.90;;;;;;4994337;28;20057;-38
2022/12/06 07:24:32;;;;;;;6.57;4.05;;;3.50;99.90;;;;;;5025833;28;20537;-38
2022/12/06 07:26:59;;;;;;;6.85;4.07;;;3.50;99.90;;;;;;5028032;28;20485;-38
2022/12/06 07:29:26;;;;;;;7.53;4.57;;;3.50;99.90;;;;;;5015774;28;20057;-39
2022/12/06 07:31:52;;;;;;;5.90;3.85;;;3.40;99.90;;;;;;5002979;28;20144;-38
2022/12/06 07:34:19;;;;;;;7.90;4.65;;;3.30;99.90;;;;;;5027668;28;20138;-39
2022/12/06 07:36:47;;;;;;;8.57;4.55;;;3.30;99.90;;;;;;5029601;28;20481;-40
2022/12/06 07:39:14;;;;;;;16.98;7.60;;;3.30;99.90;;;;;;5029585;28;20103;-38
2022/12/06 07:47:24;;;;;;;17.98;8.70;;;3.10;99.90;;;;;;4950313;28;20047;-39
2022/12/06 07:49:52;;;;;;;16.08;8.65;;;3.10;99.90;;;;;;4995196;28;20133;-39
2022/12/06 07:52:20;;;;;;;23.50;11.07;;;3.10;99.90;;;;;;5031996;28;20061;-39
2022/12/06 07:54:47;;;;;;;14.00;8.50;;;3.10;99.90;;;;;;5032161;28;20041;-38
2022/12/06 07:57:14;;;;;;;16.13;9.07;;;3.10;99.90;;;;;;5012279;28;20087;-40
2022/12/06 07:59:41;;;;;;;20.08;10.38;;;3.10;99.90;;;;;;5014483;28;20136;-39
2022/12/06 08:02:09;;;;;;;17.30;10.27;;;3.00;99.90;;;;;;5008374;28;20054;-39
2022/12/06 08:04:36;;;;;;;16.10;9.02;;;3.00;99.90;;;;;;5026711;28;20128;-39
2022/12/06 08:07:03;;;;;;;13.07;8.73;;;3.00;99.90;;;;;;5009266;28;20096;-38
2022/12/06 08:09:31;;;;;;;13.70;7.53;;;3.00;99.90;;;;;;5030262;28;20050;-40
2022/12/06 08:11:58;;;;;;;12.20;7.80;;;3.00;99.90;;;;;;5030002;28;20132;-40
2022/12/06 08:14:24;;;;;;;12.70;7.95;;;2.90;99.90;;;;;;5029999;28;20504;-40
2022/12/06 08:16:51;;;;;;;14.75;8.43;;;3.00;99.90;;;;;;5021009;28;20451;-39
2022/12/06 08:19:18;;;;;;;9.88;6.53;;;3.00;99.90;;;;;;5030030;28;20141;-40
2022/12/06 08:21:45;;;;;;;13.25;7.30;;;3.00;99.90;;;;;;5018316;28;20128;-40
2022/12/06 08:24:12;;;;;;;11.13;6.72;;;3.00;99.90;;;;;;5007677;28;20458;-40
2022/12/06 08:26:40;;;;;;;14.00;6.47;;;3.00;99.90;;;;;;5005495;28;20049;-39
2022/12/06 08:29:06;;;;;;;8.52;5.45;;;3.00;99.90;;;;;;5029935;28;20536;-40
2022/12/06 08:31:34;;;;;;;10.07;6.20;;;3.10;99.90;;;;;;5031606;28;20108;-40
2022/12/06 08:34:01;;;;;;;10.05;5.07;;;3.10;99.90;;;;;;5032332;28;20053;-40
2022/12/06 08:36:28;;;;;;;9.30;4.45;;;3.10;99.90;;;;;;5033441;28;20107;-40
2022/12/06 08:38:55;;;;;;;11.68;4.88;;;3.10;99.90;;;;;;5011472;28;20255;-39
2022/12/06 08:44:08;;;;;;;7.38;4.53;;;3.20;99.90;;;;;;5026505;28;20049;-40
2022/12/06 08:46:35;;;;;;;8.88;4.25;;;3.30;99.90;;;;;;5023954;28;20091;-40
2022/12/06 08:49:02;;;;;;;10.57;5.18;;;3.30;99.90;;;;;;5034400;28;20058;-39
2022/12/06 08:51:29;;;;;;;9.57;5.00;;;3.30;99.90;;;;;;5018483;28;20077;-40
2022/12/06 08:53:55;;;;;;;11.70;5.55;;;3.40;99.90;;;;;;5018625;28;20164;-40
2022/12/06 08:56:22;;;;;;;8.40;4.32;;;3.50;99.90;;;;;;5015959;28;20100;-40
2022/12/06 08:58:49;;;;;;;10.13;4.88;;;3.60;99.90;;;;;;5032962;28;20127;-40
2022/12/06 09:01:18;;;;;;;9.05;5.07;;;3.70;99.90;;;;;;5017234;28;20088;-40
2022/12/06 09:03:45;;;;;;;7.25;4.65;;;3.70;99.90;;;;;;5017544;28;20049;-39
2022/12/06 09:06:12;;;;;;;9.02;5.35;;;3.80;99.90;;;;;;5032079;28;20085;-39
2022/12/06 09:08:39;;;;;;;11.27;4.82;;;3.90;99.90;;;;;;5005953;28;20108;-39
2022/12/06 09:11:06;;;;;;;6.68;4.40;;;3.90;99.90;;;;;;5034384;28;20081;-38
2022/12/06 09:13:33;;;;;;;6.72;4.25;;;4.00;99.90;;;;;;5033091;28;20517;-38
2022/12/06 09:16:00;;;;;;;8.88;4.40;;;4.00;99.90;;;;;;5010782;28;20127;-38
2022/12/06 09:18:28;;;;;;;8.98;4.38;;;4.10;99.90;;;;;;5023437;28;20132;-38
2022/12/06 09:20:55;;;;;;;7.03;3.60;;;4.10;99.90;;;;;;5026171;28;20041;-38
2022/12/06 09:23:22;;;;;;;8.63;3.83;;;4.10;99.90;;;;;;5033126;28;20049;-40
2022/12/06 09:25:49;;;;;;;7.38;4.07;;;4.20;99.90;;;;;;5030974;28;20077;-38
2022/12/06 09:28:15;;;;;;;7.53;3.78;;;4.20;99.90;;;;;;5028814;28;20041;-38
2022/12/06 09:30:42;;;;;;;6.95;4.28;;;4.30;99.90;;;;;;4998025;28;20116;-38
2022/12/06 09:33:09;;;;;;;10.32;4.43;;;4.30;99.90;;;;;;5034405;28;20362;-38
2022/12/06 09:35:37;;;;;;;13.32;4.40;;;4.40;99.90;;;;;;5033654;28;20060;-38
2022/12/06 09:38:04;;;;;;;9.23;4.35;;;4.40;99.90;;;;;;5001521;28;20074;-39
2022/12/06 09:40:32;;;;;;;9.10;4.35;;;4.50;99.90;;;;;;5015580;28;20097;-39
2022/12/06 09:43:05;;;;;;;10.75;4.13;;;4.50;99.90;;;;;;5015807;28;20080;-39
2022/12/06 09:45:38;;;;;;;10.57;4.50;;;4.60;99.90;;;;;;5026627;28;20094;-39
2022/12/06 09:48:20;;;;;;;7.85;3.88;;;4.60;99.90;;;;;;5014121;28;20132;-42
2022/12/06 09:50:50;;;;;;;;;;;4.60;99.90;;;;;;5027590;28;20136;-38
2022/12/06 09:53:21;;;;;;;8.38;4.07;;;4.60;99.90;;;;;;5034113;28;19921;-39
2022/12/06 09:55:57;;;;;;;9.38;3.60;;;4.60;99.90;;;;;;5014757;28;20080;-39
2022/12/06 09:58:31;;;;;;;9.82;4.13;;;4.70;99.90;;;;;;5015593;28;20482;-39
2022/12/06 10:01:06;;;;;;;13.25;3.70;;;4.70;99.90;;;;;;5016673;28;20054;-38
2022/12/06 10:03:45;;;;;;;14.35;3.95;;;4.70;99.90;;;;;;5012813;28;20405;-38
2022/12/06 10:06:14;;;;;;;7.57;4.00;;;4.80;99.90;;;;;;5033908;28;20054;-39
2022/12/06 10:08:58;;;;;;;7.18;3.88;;;4.80;99.90;;;;;;5011903;28;20057;-38
2022/12/06 10:11:32;;;;;;;8.68;3.65;;;4.90;99.90;;;;;;4997151;28;20057;-39
2022/12/06 10:14:03;;;;;;;12.13;4.30;;;4.90;99.90;;;;;;5013967;28;20501;-38
2022/12/06 10:16:36;;;;;;;12.38;4.28;;;5.00;99.90;;;;;;5017298;28;20420;-38
2022/12/06 10:19:09;;;;;;;9.57;3.70;;;5.00;99.90;;;;;;5029131;28;20436;-39
2022/12/06 10:21:45;;;;;;;8.30;3.80;;;5.10;99.90;;;;;;5016395;28;20103;-39
2022/12/06 10:24:19;;;;;;;12.13;4.55;;;5.10;99.90;;;;;;5013873;28;20050;-38
2022/12/06 10:26:48;;;;;;;7.95;3.92;;;5.10;99.90;;;;;;5016032;28;20049;-38
2022/12/06 10:29:18;;;;;;;10.63;4.60;;;5.10;99.90;;;;;;5030744;28;20085;-38
2022/12/06 10:31:51;;;;;;;12.67;4.27;;;5.10;99.90;;;;;;5033612;28;20583;-38
2022/12/06 10:34:20;;;;;;;7.18;3.80;;;5.20;99.90;;;;;;5014431;28;20392;-38
2022/12/06 10:36:53;;;;;;;12.07;4.40;;;5.20;99.90;;;;;;5032657;28;20099;-38
2022/12/06 10:39:21;;;;;;;11.60;4.18;;;5.20;99.90;;;;;;4995860;28;20081;-37
2022/12/06 10:41:51;;;;;;;10.70;3.95;;;5.20;99.90;;;;;;5018596;28;20408;-39
2022/12/06 10:44:20;;;;;;;8.27;3.90;;;5.30;99.90;;;;;;5032063;28;20057;-39
2022/12/06 10:47:03;;;;;;;6.88;3.65;;;5.30;99.90;;;;;;5030728;28;20462;-38
2022/12/06 10:49:35;;;;;;;5.15;3.30;;;5.30;99.90;;;;;;5032596;28;20050;-39
2022/12/06 10:52:05;;;;;;;9.43;3.63;;;5.50;99.90;;;;;;5012492;28;20054;-38
2022/12/06 10:54:35;;;;;;;8.60;3.67;;;5.60;99.90;;;;;;5030597;28;20100;-38
2022/12/06 10:57:03;;;;;;;6.60;3.45;;;5.70;99.90;;;;;;5031020;28;20466;-39
2022/12/06 10:59:34;;;;;;;10.20;3.42;;;5.70;99.90;;;;;;5028203;28;20049;-39
2022/12/06 11:02:03;;;;;;;7.60;2.80;;;5.80;99.90;;;;;;5028710;28;20111;-39
2022/12/06 11:04:32;;;;;;;5.32;2.95;;;5.80;99.90;;;;;;5020884;28;20053;-39
2022/12/06 11:07:00;;;;;;;9.15;3.15;;;5.90;99.90;;;;;;5021852;28;20053;-45
2022/12/06 11:09:31;;;;;;;8.48;2.72;;;5.90;99.90;;;;;;5011905;28;20119;-39
2022/12/06 11:11:58;;;;;;;12.38;3.53;;;5.90;99.90;;;;;;5031429;28;20052;-40
2022/12/06 11:14:29;;;;;;;4.38;2.58;;;6.00;99.90;;;;;;5019352;28;20049;-39
2022/12/06 11:16:59;;;;;;;7.22;3.15;;;6.00;99.90;;;;;;5029106;28;20088;-39
2022/12/06 11:19:30;;;;;;;7.15;3.00;;;6.00;99.90;;;;;;5012991;28;20057;-40
2022/12/06 11:21:59;;;;;;;8.52;3.10;;;6.10;99.90;;;;;;5001286;28;20433;-40
2022/12/06 11:24:28;;;;;;;6.57;3.05;;;6.10;99.90;;;;;;5015163;28;20103;-40
2022/12/06 11:26:59;;;;;;;5.80;2.97;;;6.10;99.90;;;;;;5022759;28;20576;-40
2022/12/06 11:29:26;;;;;;;5.85;2.90;;;6.20;99.90;;;;;;4995183;28;20062;-40
2022/12/06 11:31:54;;;;;;;9.35;2.92;;;6.20;99.90;;;;;;5029022;28;20053;-40
2022/12/06 11:34:23;;;;;;;6.78;2.90;;;6.20;99.90;;;;;;4994870;28;20453;-40
2022/12/06 11:36:50;;;;;;;8.35;3.20;;;6.30;99.90;;;;;;4997208;28;20508;-39
2022/12/06 11:39:17;;;;;;;12.45;4.28;;;6.30;99.90;;;;;;5010246;28;20054;-40
2022/12/06 11:41:46;;;;;;;11.90;3.92;;;6.30;99.90;;;;;;5011269;28;20470;-39
2022/12/06 11:44:17;;;;;;;4.72;3.10;;;6.40;99.90;;;;;;5026117;28;20095;-39
2022/12/06 11:46:44;;;;;;;6.28;2.40;;;6.40;99.90;;;;;;5031151;28;20136;-38
2022/12/06 11:49:15;;;;;;;7.25;2.42;;;6.40;99.90;;;;;;5031940;28;20498;-39
2022/12/06 11:51:42;;;;;;;7.80;2.60;;;6.40;99.90;;;;;;5014368;28;20045;-40
2022/12/06 11:54:18;;;;;;;4.85;2.42;;;6.40;99.90;;;;;;5029992;28;20099;-40
2022/12/06 11:56:45;;;;;;;6.53;2.55;;;6.50;99.90;;;;;;5030160;28;20085;-40
2022/12/06 11:59:23;;;;;;;6.35;2.38;;;6.40;99.90;;;;;;5003803;28;20493;-39
2022/12/06 12:01:51;;;;;;;10.48;2.50;;;6.50;99.90;;;;;;5019900;28;20060;-39
2022/12/06 12:04:26;;;;;;;8.07;3.17;;;6.50;99.90;;;;;;5012167;28;20489;-40
2022/12/06 12:06:55;;;;;;;4.80;2.30;;;6.60;99.90;;;;;;5030753;28;20049;-39
2022/12/06 12:09:22;;;;;;;7.93;2.40;;;6.60;99.90;;;;;;5014014;28;20061;-40
2022/12/06 12:11:54;;;;;;;8.02;2.10;;;6.60;99.90;;;;;;5030757;28;20099;-39
2022/12/06 12:14:33;;;;;;;4.57;2.10;;;6.70;99.90;;;;;;5029285;28;20425;-38
2022/12/06 12:17:01;;;;;;;7.10;2.25;;;6.70;99.90;;;;;;5018063;28;20049;-40
2022/12/06 12:19:40;;;;;;;5.63;2.22;;;6.70;99.90;;;;;;5014140;28;20057;-40
2022/12/06 12:22:15;;;;;;;6.03;1.98;;;6.70;99.90;;;;;;5031085;28;20379;-39
2022/12/06 12:24:46;;;;;;;6.60;2.42;;;6.70;99.90;;;;;;5014194;28;20049;-39
2022/12/06 12:27:43;;;;;;;5.53;2.25;;;6.70;99.90;;;;;;5030771;28;20436;-40
2022/12/06 12:30:22;;;;;;;7.35;1.85;;;6.70;99.90;;;;;;5024529;28;20099;-40
2022/12/06 12:32:50;;;;;;;2.92;1.73;;;6.70;99.90;;;;;;5033235;28;20494;-39
2022/12/06 12:35:27;;;;;;;7.03;2.38;;;6.70;99.90;;;;;;5025311;28;20442;-39
2022/12/06 12:37:56;;;;;;;5.40;2.10;;;6.80;99.90;;;;;;4999449;28;20049;-40
2022/12/06 12:40:22;;;;;;;4.70;1.98;;;6.80;99.90;;;;;;5019178;28;20092;-40
2022/12/06 12:42:56;;;;;;;5.25;2.08;;;6.90;99.90;;;;;;5027669;28;20465;-39
2022/12/06 12:45:26;;;;;;;9.05;2.38;;;6.90;99.90;;;;;;5029732;28;20501;-39
2022/12/06 12:47:57;;;;;;;4.95;2.20;;;7.00;99.90;;;;;;5028706;28;20084;-39
2022/12/06 12:50:24;;;;;;;8.55;2.60;;;7.00;99.90;;;;;;5018996;28;20104;-40
2022/12/06 12:52:51;;;;;;;4.53;2.22;;;7.00;99.90;;;;;;5028180;28;20050;-40
2022/12/06 12:55:19;;;;;;;5.43;2.10;;;7.00;99.90;;;;;;5001846;28;20568;-37
2022/12/06 12:57:47;;;;;;;5.95;2.20;;;7.00;99.90;;;;;;5012265;28;20054;-40
2022/12/06 13:00:14;;;;;;;5.50;2.00;;;7.10;99.90;;;;;;5028252;28;20041;-39
2022/12/06 13:02:43;;;;;;;5.55;2.47;;;7.10;99.90;;;;;;5028615;28;20093;-40
2022/12/06 13:05:15;;;;;;;8.38;2.53;;;7.10;99.90;;;;;;5028814;28;20131;-39
2022/12/06 13:07:42;;;;;;;3.80;1.85;;;7.20;99.90;;;;;;5007410;28;20045;-40
2022/12/06 13:10:17;;;;;;;4.50;2.05;;;7.20;99.90;;;;;;5023378;28;20045;-40
2022/12/06 13:12:45;;;;;;;6.55;2.17;;;7.20;99.90;;;;;;4993809;28;20070;-38
2022/12/06 13:15:14;;;;;;;5.43;2.20;;;7.20;99.90;;;;;;5011536;28;20057;-40
2022/12/06 13:17:44;;;;;;;5.38;2.33;;;7.20;99.90;;;;;;5006512;28;20054;-40
2022/12/06 13:20:20;;;;;;;7.55;2.20;;;7.20;99.90;;;;;;5029955;28;20045;-39
2022/12/06 13:22:48;;;;;;;11.73;2.55;;;7.20;99.90;;;;;;5016368;28;20041;-38
2022/12/06 13:25:15;;;;;;;8.35;2.63;;;7.20;99.90;;;;;;5033717;28;20049;-39
2022/12/06 13:27:44;;;;;;;4.50;2.20;;;7.20;99.90;;;;;;5031632;28;20532;-39